sensor_id;sensor_type;location;lat;lon;timestamp;pressure;altitude;pressure_sealevel;temperature;humidity
49461;BME280;35355;49.198;-0.368;2023-07-09T00:01:49;101220.59;;;22.36;64.84
49461;BME280;35355;49.198;-0.368;2023-07-09T00:04:15;101224.69;;;22.38;64.98
49461;BME280;35355;49.198;-0.368;2023-07-09T00:06:40;101230.06;;;22.43;64.79
49461;BME280;35355;49.198;-0.368;2023-07-09T00:09:13;101238.59;;;22.47;64.76
49461;BME280;35355;49.198;-0.368;2023-07-09T00:11:41;101241.50;;;22.51;64.77
49461;BME280;35355;49.198;-0.368;2023-07-09T00:14:08;101251.16;;;22.53;64.44
49461;BME280;35355;49.198;-0.368;2023-07-09T00:16:34;101259.50;;;22.53;64.53
49461;BME280;35355;49.198;-0.368;2023-07-09T00:19:00;101253.13;;;22.53;64.52
49461;BME280;35355;49.198;-0.368;2023-07-09T00:21:27;101247.88;;;22.51;64.88
49461;BME280;35355;49.198;-0.368;2023-07-09T00:23:59;101243.47;;;22.50;64.71
49461;BME280;35355;49.198;-0.368;2023-07-09T00:26:31;101242.97;;;22.48;65.05
49461;BME280;35355;49.198;-0.368;2023-07-09T00:28:58;101243.47;;;22.50;64.49
49461;BME280;35355;49.198;-0.368;2023-07-09T00:31:23;101240.88;;;22.45;64.25
49461;BME280;35355;49.198;-0.368;2023-07-09T00:33:49;101242.66;;;22.41;64.60
49461;BME280;35355;49.198;-0.368;2023-07-09T00:36:18;101259.69;;;22.39;64.75
49461;BME280;35355;49.198;-0.368;2023-07-09T00:38:46;101262.31;;;22.36;64.46
49461;BME280;35355;49.198;-0.368;2023-07-09T00:41:16;101268.84;;;22.31;64.48
49461;BME280;35355;49.198;-0.368;2023-07-09T00:43:43;101267.06;;;22.27;64.69
49461;BME280;35355;49.198;-0.368;2023-07-09T00:48:56;101257.41;;;22.15;64.07
49461;BME280;35355;49.198;-0.368;2023-07-09T00:51:25;101257.59;;;22.10;64.44
49461;BME280;35355;49.198;-0.368;2023-07-09T00:53:58;101263.78;;;22.07;64.65
49461;BME280;35355;49.198;-0.368;2023-07-09T00:56:32;101261.66;;;22.04;64.70
49461;BME280;35355;49.198;-0.368;2023-07-09T00:59:01;101260.69;;;22.00;64.73
49461;BME280;35355;49.198;-0.368;2023-07-09T01:01:29;101271.47;;;22.01;65.31
49461;BME280;35355;49.198;-0.368;2023-07-09T01:03:57;101261.31;;;21.97;65.33
49461;BME280;35355;49.198;-0.368;2023-07-09T01:06:31;101268.84;;;21.96;64.95
49461;BME280;35355;49.198;-0.368;2023-07-09T01:08:57;101269.66;;;21.97;63.64
49461;BME280;35355;49.198;-0.368;2023-07-09T01:11:24;101271.31;;;21.98;64.75
49461;BME280;35355;49.198;-0.368;2023-07-09T01:13:52;101262.97;;;21.89;65.30
49461;BME280;35355;49.198;-0.368;2023-07-09T01:16:18;101269.84;;;21.92;65.34
49461;BME280;35355;49.198;-0.368;2023-07-09T01:18:46;101275.53;;;21.86;65.47
49461;BME280;35355;49.198;-0.368;2023-07-09T01:21:11;101280.28;;;21.86;65.40
49461;BME280;35355;49.198;-0.368;2023-07-09T01:23:44;101283.38;;;21.84;65.53
49461;BME280;35355;49.198;-0.368;2023-07-09T01:26:11;101276.50;;;21.82;65.81
49461;BME280;35355;49.198;-0.368;2023-07-09T01:28:37;101280.78;;;21.79;65.65
49461;BME280;35355;49.198;-0.368;2023-07-09T01:31:03;101271.94;;;21.77;65.48
49461;BME280;35355;49.198;-0.368;2023-07-09T01:33:30;101273.91;;;21.77;65.50
49461;BME280;35355;49.198;-0.368;2023-07-09T01:35:56;101268.69;;;21.75;65.28
49461;BME280;35355;49.198;-0.368;2023-07-09T01:38:26;101271.47;;;21.75;65.33
49461;BME280;35355;49.198;-0.368;2023-07-09T01:40:58;101277.50;;;21.77;65.40
49461;BME280;35355;49.198;-0.368;2023-07-09T01:43:25;101274.03;;;21.71;65.18
49461;BME280;35355;49.198;-0.368;2023-07-09T01:45:51;101270.94;;;21.73;65.05
49461;BME280;35355;49.198;-0.368;2023-07-09T01:48:18;101281.25;;;21.72;64.94
49461;BME280;35355;49.198;-0.368;2023-07-09T01:50:46;101289.91;;;21.71;64.89
49461;BME280;35355;49.198;-0.368;2023-07-09T01:53:12;101300.22;;;21.70;64.91
49461;BME280;35355;49.198;-0.368;2023-07-09T01:55:40;101305.13;;;21.73;64.92
49461;BME280;35355;49.198;-0.368;2023-07-09T01:58:05;101311.50;;;21.74;64.77
49461;BME280;35355;49.198;-0.368;2023-07-09T02:00:32;101317.03;;;21.74;64.84
49461;BME280;35355;49.198;-0.368;2023-07-09T02:03:01;101317.03;;;21.74;64.81
49461;BME280;35355;49.198;-0.368;2023-07-09T02:05:29;101321.94;;;21.77;64.63
49461;BME280;35355;49.198;-0.368;2023-07-09T02:07:55;101331.13;;;21.78;64.70
49461;BME280;35355;49.198;-0.368;2023-07-09T02:10:20;101325.91;;;21.76;64.97
49461;BME280;35355;49.198;-0.368;2023-07-09T02:12:47;101333.91;;;21.78;64.97
49461;BME280;35355;49.198;-0.368;2023-07-09T02:15:12;101328.34;;;21.78;65.04
49461;BME280;35355;49.198;-0.368;2023-07-09T02:17:38;101334.06;;;21.81;64.66
49461;BME280;35355;49.198;-0.368;2023-07-09T02:20:04;101314.59;;;21.81;64.89
49461;BME280;35355;49.198;-0.368;2023-07-09T02:22:32;101309.53;;;21.83;64.92
49461;BME280;35355;49.198;-0.368;2023-07-09T02:24:57;101308.72;;;21.83;64.78
49461;BME280;35355;49.198;-0.368;2023-07-09T02:27:23;101313.47;;;21.82;64.51
49461;BME280;35355;49.198;-0.368;2023-07-09T02:29:49;101308.06;;;21.77;64.50
49461;BME280;35355;49.198;-0.368;2023-07-09T02:32:23;101321.94;;;21.77;64.40
49461;BME280;35355;49.198;-0.368;2023-07-09T02:34:49;101316.72;;;21.76;64.36
49461;BME280;35355;49.198;-0.368;2023-07-09T02:37:19;101302.03;;;21.75;64.40
49461;BME280;35355;49.198;-0.368;2023-07-09T02:39:45;101278.16;;;21.74;64.62
49461;BME280;35355;49.198;-0.368;2023-07-09T02:42:12;101273.25;;;21.71;64.24
49461;BME280;35355;49.198;-0.368;2023-07-09T02:44:39;101283.34;;;21.67;64.06
49461;BME280;35355;49.198;-0.368;2023-07-09T02:47:05;101275.19;;;21.62;63.87
49461;BME280;35355;49.198;-0.368;2023-07-09T02:49:30;101270.63;;;21.57;63.76
49461;BME280;35355;49.198;-0.368;2023-07-09T02:51:56;101275.78;;;21.50;63.67
49461;BME280;35355;49.198;-0.368;2023-07-09T02:54:21;101287.22;;;21.48;63.82
49461;BME280;35355;49.198;-0.368;2023-07-09T02:56:47;101289.69;;;21.50;63.38
49461;BME280;35355;49.198;-0.368;2023-07-09T02:59:12;101282.19;;;21.50;63.47
49461;BME280;35355;49.198;-0.368;2023-07-09T03:01:39;101270.25;;;21.50;63.32
49461;BME280;35355;49.198;-0.368;2023-07-09T03:04:04;101269.72;;;21.48;63.50
49461;BME280;35355;49.198;-0.368;2023-07-09T03:06:32;101258.94;;;21.46;63.43
49461;BME280;35355;49.198;-0.368;2023-07-09T03:08:58;101263.34;;;21.47;63.27
49461;BME280;35355;49.198;-0.368;2023-07-09T03:11:25;101257.81;;;21.47;63.24
49461;BME280;35355;49.198;-0.368;2023-07-09T03:13:50;101270.56;;;21.48;62.63
49461;BME280;35355;49.198;-0.368;2023-07-09T03:16:16;101290.50;;;21.50;62.76
49461;BME280;35355;49.198;-0.368;2023-07-09T03:18:41;101281.88;;;21.52;62.48
49461;BME280;35355;49.198;-0.368;2023-07-09T03:21:07;101279.88;;;21.52;62.79
49461;BME280;35355;49.198;-0.368;2023-07-09T03:23:32;101282.06;;;21.55;62.63
49461;BME280;35355;49.198;-0.368;2023-07-09T03:25:58;101290.88;;;21.58;62.52
49461;BME280;35355;49.198;-0.368;2023-07-09T03:28:25;101286.97;;;21.59;62.99
49461;BME280;35355;49.198;-0.368;2023-07-09T03:30:53;101288.56;;;21.60;62.88
49461;BME280;35355;49.198;-0.368;2023-07-09T03:33:20;101299.69;;;21.60;63.02
49461;BME280;35355;49.198;-0.368;2023-07-09T03:35:45;101306.56;;;21.62;62.76
49461;BME280;35355;49.198;-0.368;2023-07-09T03:38:11;101299.88;;;21.63;62.95
49461;BME280;35355;49.198;-0.368;2023-07-09T03:40:37;101308.53;;;21.62;63.29
49461;BME280;35355;49.198;-0.368;2023-07-09T03:43:04;101316.34;;;21.60;63.13
49461;BME280;35355;49.198;-0.368;2023-07-09T03:45:29;101305.06;;;21.56;63.34
49461;BME280;35355;49.198;-0.368;2023-07-09T03:47:55;101300.34;;;21.57;63.42
49461;BME280;35355;49.198;-0.368;2023-07-09T03:50:21;101303.63;;;21.59;63.28
49461;BME280;35355;49.198;-0.368;2023-07-09T03:55:12;101295.44;;;21.62;63.77
49461;BME280;35355;49.198;-0.368;2023-07-09T03:57:38;101281.22;;;21.64;63.63
49461;BME280;35355;49.198;-0.368;2023-07-09T04:00:04;101292.03;;;21.65;63.33
49461;BME280;35355;49.198;-0.368;2023-07-09T04:07:22;101299.69;;;21.60;63.61
49461;BME280;35355;49.198;-0.368;2023-07-09T04:09:48;101306.88;;;21.61;63.70
49461;BME280;35355;49.198;-0.368;2023-07-09T04:12:13;101303.63;;;21.59;63.63
49461;BME280;35355;49.198;-0.368;2023-07-09T04:14:39;101292.50;;;21.59;63.78
49461;BME280;35355;49.198;-0.368;2023-07-09T04:17:05;101295.28;;;21.59;63.80
49461;BME280;35355;49.198;-0.368;2023-07-09T04:19:31;101300.84;;;21.59;63.88
49461;BME280;35355;49.198;-0.368;2023-07-09T04:21:56;101288.09;;;21.58;64.12
49461;BME280;35355;49.198;-0.368;2023-07-09T04:24:22;101298.38;;;21.57;64.31
49461;BME280;35355;49.198;-0.368;2023-07-09T04:26:47;101318.47;;;21.54;64.45
49461;BME280;35355;49.198;-0.368;2023-07-09T04:29:13;101305.88;;;21.57;64.27
49461;BME280;35355;49.198;-0.368;2023-07-09T04:31:40;101277.31;;;21.56;64.23
49461;BME280;35355;49.198;-0.368;2023-07-09T04:34:06;101288.75;;;21.54;64.38
49461;BME280;35355;49.198;-0.368;2023-07-09T04:36:31;101321.56;;;21.52;64.60
49461;BME280;35355;49.198;-0.368;2023-07-09T04:38:57;101339.66;;;21.50;64.67
49461;BME280;35355;49.198;-0.368;2023-07-09T04:41:22;101343.28;;;21.50;64.91
49461;BME280;35355;49.198;-0.368;2023-07-09T04:43:48;101353.28;;;21.51;64.77
49461;BME280;35355;49.198;-0.368;2023-07-09T04:46:14;101331.53;;;21.53;65.14
49461;BME280;35355;49.198;-0.368;2023-07-09T04:48:39;101305.72;;;21.53;65.51
49461;BME280;35355;49.198;-0.368;2023-07-09T04:51:05;101308.81;;;21.51;65.42
49461;BME280;35355;49.198;-0.368;2023-07-09T04:53:30;101311.38;;;21.48;65.45
49461;BME280;35355;49.198;-0.368;2023-07-09T04:55:56;101299.13;;;21.40;65.65
49461;BME280;35355;49.198;-0.368;2023-07-09T04:58:22;101302.41;;;21.42;65.65
49461;BME280;35355;49.198;-0.368;2023-07-09T05:00:47;101300.25;;;21.39;65.61
49461;BME280;35355;49.198;-0.368;2023-07-09T05:03:15;101304.50;;;21.36;65.53
49461;BME280;35355;49.198;-0.368;2023-07-09T05:05:45;101290.75;;;21.31;65.24
49461;BME280;35355;49.198;-0.368;2023-07-09T05:08:14;101286.16;;;21.27;65.21
49461;BME280;35355;49.198;-0.368;2023-07-09T05:10:49;101281.75;;;21.26;65.09
49461;BME280;35355;49.198;-0.368;2023-07-09T05:13:16;101278.00;;;21.30;65.54
49461;BME280;35355;49.198;-0.368;2023-07-09T05:15:44;101286.34;;;21.30;65.52
49461;BME280;35355;49.198;-0.368;2023-07-09T05:18:11;101292.22;;;21.29;65.75
49461;BME280;35355;49.198;-0.368;2023-07-09T05:20:37;101287.16;;;21.31;65.71
49461;BME280;35355;49.198;-0.368;2023-07-09T05:23:03;101267.22;;;21.29;66.14
49461;BME280;35355;49.198;-0.368;2023-07-09T05:25:29;101285.53;;;21.30;66.12
49461;BME280;35355;49.198;-0.368;2023-07-09T05:27:54;101285.53;;;21.30;66.32
49461;BME280;35355;49.198;-0.368;2023-07-09T05:30:20;101293.84;;;21.30;66.83
49461;BME280;35355;49.198;-0.368;2023-07-09T05:32:46;101290.25;;;21.29;66.87
49461;BME280;35355;49.198;-0.368;2023-07-09T05:35:12;101291.06;;;21.30;67.20
49461;BME280;35355;49.198;-0.368;2023-07-09T05:37:38;101300.72;;;21.32;67.00
49461;BME280;35355;49.198;-0.368;2023-07-09T05:40:05;101303.19;;;21.34;67.41
49461;BME280;35355;49.198;-0.368;2023-07-09T05:42:31;101308.75;;;21.34;67.61
49461;BME280;35355;49.198;-0.368;2023-07-09T05:44:57;101308.75;;;21.34;67.04
49461;BME280;35355;49.198;-0.368;2023-07-09T05:47:22;101297.94;;;21.32;67.35
49461;BME280;35355;49.198;-0.368;2023-07-09T05:49:48;101283.25;;;21.32;67.41
49461;BME280;35355;49.198;-0.368;2023-07-09T05:52:20;101297.75;;;21.29;67.21
49461;BME280;35355;49.198;-0.368;2023-07-09T05:54:46;101303.16;;;21.25;67.48
49461;BME280;35355;49.198;-0.368;2023-07-09T05:57:11;101321.28;;;21.31;67.57
49461;BME280;35355;49.198;-0.368;2023-07-09T05:59:37;101303.81;;;21.31;67.61
49461;BME280;35355;49.198;-0.368;2023-07-09T06:02:03;101304.81;;;21.35;67.60
49461;BME280;35355;49.198;-0.368;2023-07-09T06:04:29;101330.94;;;21.34;67.47
49461;BME280;35355;49.198;-0.368;2023-07-09T06:06:56;101358.41;;;21.35;67.64
49461;BME280;35355;49.198;-0.368;2023-07-09T06:09:22;101391.41;;;21.37;67.72
49461;BME280;35355;49.198;-0.368;2023-07-09T06:11:48;101426.16;;;21.34;67.80
49461;BME280;35355;49.198;-0.368;2023-07-09T06:14:14;101451.16;;;21.34;67.95
49461;BME280;35355;49.198;-0.368;2023-07-09T06:16:39;101468.16;;;21.33;67.91
49461;BME280;35355;49.198;-0.368;2023-07-09T06:19:04;101481.53;;;21.31;67.94
49461;BME280;35355;49.198;-0.368;2023-07-09T06:21:30;101488.53;;;21.28;68.26
49461;BME280;35355;49.198;-0.368;2023-07-09T06:23:55;101474.97;;;21.27;68.23
49461;BME280;35355;49.198;-0.368;2023-07-09T06:26:21;101466.16;;;21.25;68.04
49461;BME280;35355;49.198;-0.368;2023-07-09T06:28:46;101464.50;;;21.24;68.16
49461;BME280;35355;49.198;-0.368;2023-07-09T06:31:12;101466.16;;;21.25;68.24
49461;BME280;35355;49.198;-0.368;2023-07-09T06:33:37;101471.38;;;21.26;68.45
49461;BME280;35355;49.198;-0.368;2023-07-09T06:36:03;101485.97;;;21.32;68.87
49461;BME280;35355;49.198;-0.368;2023-07-09T06:38:29;101488.28;;;21.38;69.53
49461;BME280;35355;49.198;-0.368;2023-07-09T06:40:56;101498.94;;;21.45;69.22
49461;BME280;35355;49.198;-0.368;2023-07-09T06:43:22;101489.97;;;21.48;69.12
49461;BME280;35355;49.198;-0.368;2023-07-09T06:45:49;101447.94;;;21.41;69.15
49461;BME280;35355;49.198;-0.368;2023-07-09T06:48:14;101444.13;;;21.60;69.13
49461;BME280;35355;49.198;-0.368;2023-07-09T06:50:40;101440.44;;;21.64;68.80
49461;BME280;35355;49.198;-0.368;2023-07-09T06:53:05;101448.13;;;21.67;68.98
49461;BME280;35355;49.198;-0.368;2023-07-09T06:55:30;101455.16;;;21.73;68.87
49461;BME280;35355;49.198;-0.368;2023-07-09T06:57:56;101456.97;;;21.78;69.03
49461;BME280;35355;49.198;-0.368;2023-07-09T07:00:22;101458.94;;;21.86;69.28
49461;BME280;35355;49.198;-0.368;2023-07-09T07:02:47;101454.28;;;21.96;68.84
49461;BME280;35355;49.198;-0.368;2023-07-09T07:05:12;101465.41;;;22.04;69.21
49461;BME280;35355;49.198;-0.368;2023-07-09T07:07:38;101481.63;;;22.11;68.63
49461;BME280;35355;49.198;-0.368;2023-07-09T07:10:03;101497.00;;;22.17;68.17
49461;BME280;35355;49.198;-0.368;2023-07-09T07:12:41;101500.94;;;22.16;67.49
49461;BME280;35355;49.198;-0.368;2023-07-09T07:15:08;101497.00;;;22.17;67.11
49461;BME280;35355;49.198;-0.368;2023-07-09T07:17:33;101497.16;;;22.12;67.22
49461;BME280;35355;49.198;-0.368;2023-07-09T07:19:58;101515.81;;;22.12;67.29
49461;BME280;35355;49.198;-0.368;2023-07-09T07:22:24;101506.16;;;22.09;66.97
49461;BME280;35355;49.198;-0.368;2023-07-09T07:24:49;101498.44;;;22.06;66.97
49461;BME280;35355;49.198;-0.368;2023-07-09T07:27:15;101467.53;;;21.99;67.04
49461;BME280;35355;49.198;-0.368;2023-07-09T07:29:40;101455.41;;;21.95;67.04
49461;BME280;35355;49.198;-0.368;2023-07-09T07:32:06;101454.25;;;21.87;67.08
49461;BME280;35355;49.198;-0.368;2023-07-09T07:34:32;101430.19;;;21.82;67.28
49461;BME280;35355;49.198;-0.368;2023-07-09T07:36:59;101451.41;;;21.78;67.51
49461;BME280;35355;49.198;-0.368;2023-07-09T07:39:25;101457.31;;;21.77;67.76
49461;BME280;35355;49.198;-0.368;2023-07-09T07:41:51;101450.75;;;21.72;67.46
49461;BME280;35355;49.198;-0.368;2023-07-09T07:44:17;101444.84;;;21.74;67.91
49461;BME280;35355;49.198;-0.368;2023-07-09T07:46:43;101433.75;;;21.74;67.48
49461;BME280;35355;49.198;-0.368;2023-07-09T07:49:08;101429.97;;;21.70;67.51
49461;BME280;35355;49.198;-0.368;2023-07-09T07:51:34;101436.69;;;21.69;67.44
49461;BME280;35355;49.198;-0.368;2023-07-09T07:53:59;101429.47;;;21.68;67.75
49461;BME280;35355;49.198;-0.368;2023-07-09T07:56:24;101431.78;;;21.66;67.89
49461;BME280;35355;49.198;-0.368;2023-07-09T07:58:51;101435.69;;;21.65;67.78
49461;BME280;35355;49.198;-0.368;2023-07-09T08:01:17;101426.00;;;21.62;67.87
49461;BME280;35355;49.198;-0.368;2023-07-09T08:03:42;101433.66;;;21.57;67.73
49461;BME280;35355;49.198;-0.368;2023-07-09T08:06:08;101432.06;;;21.55;67.67
49461;BME280;35355;49.198;-0.368;2023-07-09T08:08:33;101418.28;;;21.50;67.98
49461;BME280;35355;49.198;-0.368;2023-07-09T08:11:01;101434.13;;;21.50;68.14
49461;BME280;35355;49.198;-0.368;2023-07-09T08:13:30;101446.06;;;21.50;68.14
49461;BME280;35355;49.198;-0.368;2023-07-09T08:15:57;101455.50;;;21.49;67.69
49461;BME280;35355;49.198;-0.368;2023-07-09T08:18:22;101435.56;;;21.47;68.38
49461;BME280;35355;49.198;-0.368;2023-07-09T08:20:48;101427.38;;;21.42;68.12
49461;BME280;35355;49.198;-0.368;2023-07-09T08:23:13;101440.09;;;21.43;68.34
49461;BME280;35355;49.198;-0.368;2023-07-09T08:25:38;101423.44;;;21.43;68.35
49461;BME280;35355;49.198;-0.368;2023-07-09T08:28:04;101405.66;;;21.44;68.12
49461;BME280;35355;49.198;-0.368;2023-07-09T08:30:29;101385.09;;;21.45;67.87
49461;BME280;35355;49.198;-0.368;2023-07-09T08:32:55;101395.34;;;21.45;68.03
49461;BME280;35355;49.198;-0.368;2023-07-09T08:35:22;101392.25;;;21.46;67.89
49461;BME280;35355;49.198;-0.368;2023-07-09T08:37:47;101385.56;;;21.47;68.23
49461;BME280;35355;49.198;-0.368;2023-07-09T08:40:15;101389.47;;;21.46;67.96
49461;BME280;35355;49.198;-0.368;2023-07-09T08:42:44;101390.63;;;21.45;67.82
49461;BME280;35355;49.198;-0.368;2023-07-09T08:50:36;101493.19;;;21.42;67.61
49461;BME280;35355;49.198;-0.368;2023-07-09T08:53:04;101470.34;;;21.45;68.07
49461;BME280;35355;49.198;-0.368;2023-07-09T08:55:32;101422.63;;;21.43;68.50
49461;BME280;35355;49.198;-0.368;2023-07-09T08:58:11;101422.97;;;21.41;67.99
49461;BME280;35355;49.198;-0.368;2023-07-09T09:00:44;101428.00;;;21.39;68.23
49461;BME280;35355;49.198;-0.368;2023-07-09T09:03:26;101431.28;;;21.41;68.27
49461;BME280;35355;49.198;-0.368;2023-07-09T09:05:53;101437.31;;;21.43;68.92
49461;BME280;35355;49.198;-0.368;2023-07-09T09:11:10;101436.59;;;21.51;68.56
49461;BME280;35355;49.198;-0.368;2023-07-09T09:13:37;101433.66;;;21.57;69.44
49461;BME280;35355;49.198;-0.368;2023-07-09T09:16:09;101434.66;;;21.61;69.35
49461;BME280;35355;49.198;-0.368;2023-07-09T09:18:43;101434.03;;;21.64;69.25
49461;BME280;35355;49.198;-0.368;2023-07-09T09:21:32;101435.84;;;21.68;69.37
49461;BME280;35355;49.198;-0.368;2023-07-09T09:24:12;101428.50;;;21.72;69.56
49461;BME280;35355;49.198;-0.368;2023-07-09T09:26:40;101435.88;;;21.77;69.53
49461;BME280;35355;49.198;-0.368;2023-07-09T09:29:15;101425.94;;;21.76;69.43
49461;BME280;35355;49.198;-0.368;2023-07-09T09:31:43;101428.06;;;21.79;69.43
49461;BME280;35355;49.198;-0.368;2023-07-09T09:34:20;101436.41;;;21.79;69.43
49461;BME280;35355;49.198;-0.368;2023-07-09T09:36:47;101417.91;;;21.83;69.62
49461;BME280;35355;49.198;-0.368;2023-07-09T09:39:12;101425.59;;;21.86;69.61
49461;BME280;35355;49.198;-0.368;2023-07-09T09:41:38;101428.09;;;21.88;69.68
49461;BME280;35355;49.198;-0.368;2023-07-09T09:44:16;101441.66;;;21.89;69.41
49461;BME280;35355;49.198;-0.368;2023-07-09T09:46:42;101447.03;;;21.86;69.54
49461;BME280;35355;49.198;-0.368;2023-07-09T09:49:13;101457.50;;;21.89;69.22
49461;BME280;35355;49.198;-0.368;2023-07-09T09:51:40;101474.81;;;21.86;69.24
49461;BME280;35355;49.198;-0.368;2023-07-09T09:54:16;101457.97;;;21.82;69.11
49461;BME280;35355;49.198;-0.368;2023-07-09T09:56:42;101458.63;;;21.79;69.17
49461;BME280;35355;49.198;-0.368;2023-07-09T09:59:20;101466.28;;;21.73;68.72
49461;BME280;35355;49.198;-0.368;2023-07-09T10:01:46;101470.69;;;21.75;69.17
49461;BME280;35355;49.198;-0.368;2023-07-09T10:04:18;101470.03;;;21.69;69.19
49461;BME280;35355;49.198;-0.368;2023-07-09T10:06:49;101471.16;;;21.68;69.03
49461;BME280;35355;49.198;-0.368;2023-07-09T10:09:43;101464.25;;;21.65;68.58
49461;BME280;35355;49.198;-0.368;2023-07-09T10:12:47;101472.13;;;21.63;68.44
49461;BME280;35355;49.198;-0.368;2023-07-09T10:39:42;101470.47;;;21.62;67.67
49461;BME280;35355;49.198;-0.368;2023-07-09T10:42:29;101474.19;;;21.58;67.83
49461;BME280;35355;49.198;-0.368;2023-07-09T10:45:02;101484.19;;;21.59;67.58
49461;BME280;35355;49.198;-0.368;2023-07-09T10:47:36;101495.31;;;21.59;68.07
49461;BME280;35355;49.198;-0.368;2023-07-09T10:50:06;101506.72;;;21.57;68.11
49461;BME280;35355;49.198;-0.368;2023-07-09T10:52:37;101509.00;;;21.55;68.57
49461;BME280;35355;49.198;-0.368;2023-07-09T10:55:41;101519.28;;;21.54;67.90
49461;BME280;35355;49.198;-0.368;2023-07-09T11:01:14;101506.41;;;21.59;68.23
49461;BME280;35355;49.198;-0.368;2023-07-09T11:03:47;101511.97;;;21.59;68.57
49461;BME280;35355;49.198;-0.368;2023-07-09T11:06:45;101523.88;;;21.59;68.13
49461;BME280;35355;49.198;-0.368;2023-07-09T11:09:31;101514.09;;;21.62;68.32
49461;BME280;35355;49.198;-0.368;2023-07-09T11:12:35;101511.00;;;21.63;69.06
49461;BME280;35355;49.198;-0.368;2023-07-09T11:15:01;101512.81;;;21.68;69.03
49461;BME280;35355;49.198;-0.368;2023-07-09T11:17:28;101515.47;;;21.73;69.60
49461;BME280;35355;49.198;-0.368;2023-07-09T11:19:58;101508.44;;;21.76;69.37
49461;BME280;35355;49.198;-0.368;2023-07-09T11:22:27;101508.13;;;21.77;69.51
49461;BME280;35355;49.198;-0.368;2023-07-09T11:25:14;101508.97;;;21.78;68.98
49461;BME280;35355;49.198;-0.368;2023-07-09T11:27:52;101505.03;;;21.79;69.26
49461;BME280;35355;49.198;-0.368;2023-07-09T11:30:28;101504.06;;;21.83;69.28
49461;BME280;35355;49.198;-0.368;2023-07-09T11:32:57;101501.81;;;21.85;69.57
49461;BME280;35355;49.198;-0.368;2023-07-09T11:35:26;101492.31;;;21.86;69.32
49461;BME280;35355;49.198;-0.368;2023-07-09T11:37:53;101487.25;;;21.88;69.41
49461;BME280;35355;49.198;-0.368;2023-07-09T11:40:19;101491.03;;;21.93;69.64
49461;BME280;35355;49.198;-0.368;2023-07-09T11:42:54;101482.38;;;21.94;69.51
49461;BME280;35355;49.198;-0.368;2023-07-09T11:45:30;101477.31;;;21.96;69.23
49461;BME280;35355;49.198;-0.368;2023-07-09T11:48:35;101486.47;;;21.97;68.55
49461;BME280;35355;49.198;-0.368;2023-07-09T11:51:08;101475.84;;;21.99;69.07
49461;BME280;35355;49.198;-0.368;2023-07-09T11:53:40;101476.50;;;21.96;69.42
49461;BME280;35355;49.198;-0.368;2023-07-09T11:56:08;101484.19;;;21.99;69.10
49461;BME280;35355;49.198;-0.368;2023-07-09T11:58:34;101481.59;;;22.02;68.58
49461;BME280;35355;49.198;-0.368;2023-07-09T12:01:00;101465.56;;;21.99;68.97
49461;BME280;35355;49.198;-0.368;2023-07-09T12:03:36;101466.56;;;22.03;68.66
49461;BME280;35355;49.198;-0.368;2023-07-09T12:06:28;101469.16;;;22.08;68.51
49461;BME280;35355;49.198;-0.368;2023-07-09T12:08:55;101458.25;;;22.21;68.66
49461;BME280;35355;49.198;-0.368;2023-07-09T12:11:30;101457.78;;;22.28;68.74
49461;BME280;35355;49.198;-0.368;2023-07-09T12:14:04;101460.44;;;22.33;68.36
49461;BME280;35355;49.198;-0.368;2023-07-09T12:16:30;101473.69;;;22.36;67.57
49461;BME280;35355;49.198;-0.368;2023-07-09T12:18:56;101471.59;;;22.41;68.00
49461;BME280;35355;49.198;-0.368;2023-07-09T12:21:23;101467.97;;;22.41;67.74
49461;BME280;35355;49.198;-0.368;2023-07-09T12:23:50;101472.41;;;22.42;68.24
49461;BME280;35355;49.198;-0.368;2023-07-09T12:26:18;101478.63;;;22.48;67.65
49461;BME280;35355;49.198;-0.368;2023-07-09T12:28:51;101483.38;;;22.47;67.44
49461;BME280;35355;49.198;-0.368;2023-07-09T12:31:29;101484.34;;;22.51;67.53
49461;BME280;35355;49.198;-0.368;2023-07-09T12:33:57;101487.63;;;22.53;67.90
49461;BME280;35355;49.198;-0.368;2023-07-09T12:36:24;101486.50;;;22.54;67.32
49461;BME280;35355;49.198;-0.368;2023-07-09T12:38:55;101489.28;;;22.54;67.53
49461;BME280;35355;49.198;-0.368;2023-07-09T12:41:28;101487.78;;;22.57;67.65
49461;BME280;35355;49.198;-0.368;2023-07-09T12:43:55;101483.72;;;22.63;68.26
49461;BME280;35355;49.198;-0.368;2023-07-09T12:46:24;101481.09;;;22.67;68.60
49461;BME280;35355;49.198;-0.368;2023-07-09T12:48:50;101476.34;;;22.76;68.96
49461;BME280;35355;49.198;-0.368;2023-07-09T12:51:22;101467.84;;;22.81;68.65
49461;BME280;35355;49.198;-0.368;2023-07-09T12:54:00;101466.53;;;22.87;68.43
49461;BME280;35355;49.198;-0.368;2023-07-09T12:56:34;101466.88;;;22.94;67.91
49461;BME280;35355;49.198;-0.368;2023-07-09T12:59:02;101453.09;;;22.89;68.05
49461;BME280;35355;49.198;-0.368;2023-07-09T13:01:38;101462.59;;;22.97;68.10
49461;BME280;35355;49.198;-0.368;2023-07-09T13:04:04;101462.09;;;23.04;67.70
49461;BME280;35355;49.198;-0.368;2023-07-09T13:06:35;101465.38;;;23.06;68.10
49461;BME280;35355;49.198;-0.368;2023-07-09T13:09:10;101451.13;;;23.07;67.59
49461;BME280;35355;49.198;-0.368;2023-07-09T13:11:36;101453.56;;;23.09;67.30
49461;BME280;35355;49.198;-0.368;2023-07-09T13:14:04;101460.63;;;23.06;67.54
49461;BME280;35355;49.198;-0.368;2023-07-09T13:16:30;101463.09;;;23.08;67.26
49461;BME280;35355;49.198;-0.368;2023-07-09T13:19:02;101460.81;;;23.10;66.69
49461;BME280;35355;49.198;-0.368;2023-07-09T13:21:28;101453.41;;;23.05;66.78
49461;BME280;35355;49.198;-0.368;2023-07-09T13:23:54;101463.09;;;23.08;66.89
49461;BME280;35355;49.198;-0.368;2023-07-09T13:26:20;101465.25;;;23.11;66.46
49461;BME280;35355;49.198;-0.368;2023-07-09T13:28:45;101461.00;;;23.14;66.84
49461;BME280;35355;49.198;-0.368;2023-07-09T13:31:19;101469.00;;;23.15;66.21
49461;BME280;35355;49.198;-0.368;2023-07-09T13:33:56;101461.00;;;23.14;66.54